Time;durP1;ratioP1;P1;durP2;ratioP2;P2;SDS_P1;SDS_P2;PMS_P1;PMS_P2;Temp;Humidity;BMP_temperature;BMP_pressure;BME280_temperature;BME280_humidity;BME280_pressure;Samples;Min_cycle;Max_cycle;Signal;HPM_P1;HPM_P2
2021/04/27 00:01:44;;;;;;;19.67;17.97;;;5.50;98.10;;;;;;5045378;28;21030;-71
2021/04/27 00:04:10;;;;;;;17.23;15.93;;;5.40;98.50;;;;;;5047032;28;20960;-71
2021/04/27 00:06:37;;;;;;;19.10;17.20;;;5.30;99.30;;;;;;5047255;28;20815;-69
2021/04/27 00:09:06;;;;;;;18.03;16.73;;;5.20;99.90;;;;;;5047199;28;20476;-71
2021/04/27 00:11:33;;;;;;;20.23;18.10;;;5.10;99.90;;;;;;5048112;28;20881;-70
2021/04/27 00:13:59;;;;;;;18.93;17.23;;;5.10;99.90;;;;;;5047748;28;20467;-69
2021/04/27 00:16:27;;;;;;;16.40;15.20;;;5.10;99.90;;;;;;5047174;28;21007;-69
2021/04/27 00:18:53;;;;;;;17.13;15.67;;;5.00;99.90;;;;;;5044153;28;21044;-71
2021/04/27 00:21:20;;;;;;;17.30;16.00;;;4.90;99.90;;;;;;5046961;28;20452;-69
2021/04/27 00:23:46;;;;;;;16.97;15.47;;;4.90;99.90;;;;;;5046722;28;20522;-70
2021/04/27 00:26:13;;;;;;;18.70;16.80;;;4.90;99.90;;;;;;5045765;28;20471;-70
2021/04/27 00:28:40;;;;;;;17.30;15.80;;;4.80;99.90;;;;;;5048279;28;20467;-70
2021/04/27 00:31:07;;;;;;;18.90;17.00;;;4.70;99.90;;;;;;5047832;28;20494;-71
2021/04/27 00:33:34;;;;;;;18.43;16.87;;;4.60;99.90;;;;;;5047111;28;20482;-71
2021/04/27 00:36:01;;;;;;;18.80;16.90;;;4.60;99.90;;;;;;5046948;28;20460;-71
2021/04/27 00:38:28;;;;;;;19.37;17.77;;;4.60;99.90;;;;;;5046209;28;20963;-69
2021/04/27 00:40:55;;;;;;;18.67;17.10;;;4.50;99.90;;;;;;5047852;28;20810;-71
2021/04/27 00:43:22;;;;;;;18.77;17.20;;;4.50;99.90;;;;;;5046262;28;20574;-70
2021/04/27 00:45:48;;;;;;;19.30;17.60;;;4.50;99.90;;;;;;5047533;28;20861;-70
2021/04/27 00:48:15;;;;;;;17.70;16.20;;;4.60;99.90;;;;;;5047006;28;20463;-70
2021/04/27 00:50:43;;;;;;;19.37;16.93;;;4.60;99.90;;;;;;5047081;28;20870;-71
2021/04/27 00:53:10;;;;;;;17.73;16.23;;;4.70;99.90;;;;;;5045399;28;20476;-70
2021/04/27 00:55:38;;;;;;;18.93;17.27;;;4.70;99.90;;;;;;5048425;28;20490;-69
2021/04/27 00:58:05;;;;;;;16.67;15.43;;;4.80;99.90;;;;;;5046776;28;20467;-70
2021/04/27 01:00:36;;;;;;;18.40;16.57;;;4.80;99.90;;;;;;5045075;28;20471;-72
2021/04/27 01:03:04;;;;;;;18.40;16.47;;;4.80;99.90;;;;;;5046751;28;20487;-70
2021/04/27 01:05:32;;;;;;;17.00;15.80;;;4.70;99.90;;;;;;5046806;28;20472;-71
2021/04/27 01:08:05;;;;;;;19.57;17.67;;;4.60;99.90;;;;;;5048291;28;20463;-69
2021/04/27 01:10:42;;;;;;;19.53;18.00;;;4.50;99.90;;;;;;5051708;28;20468;-71
2021/04/27 01:13:15;;;;;;;19.53;17.63;;;4.50;99.90;;;;;;5048550;28;20463;-72
2021/04/27 01:15:44;;;;;;;18.20;17.00;;;4.50;99.90;;;;;;5050682;28;20511;-71
2021/04/27 01:18:11;;;;;;;19.30;16.67;;;4.60;99.90;;;;;;5050176;28;20876;-69
2021/04/27 01:20:40;;;;;;;18.90;16.90;;;4.50;99.90;;;;;;5050166;28;20508;-70
2021/04/27 01:23:20;;;;;;;19.50;17.87;;;4.50;99.90;;;;;;5050239;28;20483;-70
2021/04/27 01:25:54;;;;;;;19.47;17.93;;;4.40;99.90;;;;;;5051192;28;20459;-69
2021/04/27 01:28:24;;;;;;;19.47;17.67;;;4.30;99.90;;;;;;5050625;28;20459;-69
2021/04/27 01:30:52;;;;;;;20.53;18.43;;;4.40;99.90;;;;;;5048522;28;20471;-70
2021/04/27 01:33:21;;;;;;;18.77;17.07;;;4.30;99.90;;;;;;5049904;28;20551;-71
2021/04/27 01:35:49;;;;;;;19.50;17.80;;;4.40;99.90;;;;;;5050117;28;20462;-73
2021/04/27 01:38:17;;;;;;;19.17;17.57;;;4.40;99.90;;;;;;5049766;28;21018;-73
2021/04/27 01:40:44;;;;;;;20.70;18.63;;;4.30;99.90;;;;;;5049986;28;20521;-72
2021/04/27 01:43:12;;;;;;;20.20;18.40;;;4.20;99.90;;;;;;5045524;28;20491;-69
2021/04/27 01:45:40;;;;;;;23.23;18.13;;;4.20;99.90;;;;;;5052148;28;20946;-71
2021/04/27 01:48:08;;;;;;;19.10;17.63;;;4.10;99.90;;;;;;5047343;28;20463;-69
2021/04/27 01:50:35;;;;;;;18.77;17.13;;;4.10;99.90;;;;;;5049456;28;20543;-70
2021/04/27 01:53:01;;;;;;;20.57;18.90;;;4.10;99.90;;;;;;5049575;28;20459;-72
2021/04/27 01:55:28;;;;;;;20.40;18.50;;;4.20;99.90;;;;;;5049617;28;20474;-69
2021/04/27 01:57:55;;;;;;;21.20;19.60;;;4.20;99.90;;;;;;5051905;28;20452;-70
2021/04/27 02:00:24;;;;;;;20.07;18.40;;;4.30;99.90;;;;;;5048263;28;20463;-71
2021/04/27 02:02:53;;;;;;;19.67;18.13;;;4.30;99.90;;;;;;5048896;28;20491;-71
2021/04/27 02:05:20;;;;;;;20.70;18.70;;;4.30;99.90;;;;;;5048080;28;20474;-71
2021/04/27 02:07:47;;;;;;;19.23;17.53;;;4.30;99.90;;;;;;5049509;28;20610;-70
2021/04/27 02:10:15;;;;;;;19.00;17.50;;;4.40;99.90;;;;;;5050571;28;20483;-69
2021/04/27 02:12:47;;;;;;;19.70;18.20;;;4.50;99.90;;;;;;5048141;28;20460;-72
2021/04/27 02:15:16;;;;;;;20.00;18.30;;;4.40;99.90;;;;;;5049276;28;21139;-70
2021/04/27 02:17:46;;;;;;;19.10;17.50;;;4.40;99.90;;;;;;5049011;28;20991;-71
2021/04/27 02:20:16;;;;;;;19.60;18.00;;;4.40;99.90;;;;;;5048614;28;20991;-68
2021/04/27 02:22:44;;;;;;;19.83;16.77;;;4.20;99.90;;;;;;5049013;28;20967;-70
2021/04/27 02:25:12;;;;;;;19.60;18.10;;;4.10;99.90;;;;;;5050561;28;20464;-70
2021/04/27 02:27:41;;;;;;;19.40;17.80;;;4.00;99.90;;;;;;5047414;28;20493;-71
2021/04/27 02:30:09;;;;;;;20.13;18.53;;;3.90;99.90;;;;;;5049025;28;20537;-71
2021/04/27 02:32:37;;;;;;;21.27;19.67;;;3.80;99.90;;;;;;5046012;28;20468;-71
2021/04/27 02:35:04;;;;;;;18.77;17.07;;;3.90;99.90;;;;;;5049229;28;20462;-71
2021/04/27 02:37:32;;;;;;;18.20;16.70;;;3.90;99.90;;;;;;5050502;28;20467;-70
2021/04/27 02:39:58;;;;;;;18.83;17.27;;;3.90;99.90;;;;;;5049734;28;20521;-69
2021/04/27 02:42:26;;;;;;;17.90;16.60;;;3.90;99.90;;;;;;5048223;28;20481;-72
2021/04/27 02:44:53;;;;;;;18.07;16.67;;;3.90;99.90;;;;;;5048767;28;20463;-69
2021/04/27 02:47:20;;;;;;;17.83;16.33;;;3.90;99.90;;;;;;5048777;28;20464;-69
2021/04/27 02:49:47;;;;;;;17.23;15.80;;;4.00;99.90;;;;;;5049343;28;20463;-70
2021/04/27 02:52:13;;;;;;;17.23;15.93;;;4.00;99.90;;;;;;5049363;28;20874;-71
2021/04/27 02:54:41;;;;;;;18.37;16.63;;;4.00;99.90;;;;;;5049331;28;20463;-73
2021/04/27 02:57:07;;;;;;;17.63;16.23;;;4.00;99.90;;;;;;5047332;28;21002;-70
2021/04/27 02:59:33;;;;;;;17.83;16.53;;;4.10;99.90;;;;;;5045968;28;20550;-70
2021/04/27 03:02:00;;;;;;;19.03;17.33;;;4.00;99.90;;;;;;5046738;28;20487;-71
2021/04/27 03:04:26;;;;;;;16.90;15.40;;;4.00;99.90;;;;;;5049130;28;20933;-72
2021/04/27 03:06:53;;;;;;;18.00;16.20;;;4.00;99.90;;;;;;5049092;28;20469;-71
2021/04/27 03:09:19;;;;;;;17.50;15.83;;;3.90;99.90;;;;;;5049155;28;20537;-69
2021/04/27 03:11:46;;;;;;;16.57;15.17;;;4.00;99.90;;;;;;5048101;28;20518;-68
2021/04/27 03:14:12;;;;;;;16.50;15.00;;;4.00;99.90;;;;;;5048154;28;20463;-72
2021/04/27 03:16:39;;;;;;;18.30;16.90;;;4.10;99.90;;;;;;5047944;28;20954;-69
2021/04/27 03:19:05;;;;;;;17.03;15.83;;;4.10;99.90;;;;;;5048221;28;20692;-70
2021/04/27 03:21:33;;;;;;;16.27;15.03;;;4.10;99.90;;;;;;5049920;28;20467;-70
2021/04/27 03:23:59;;;;;;;17.50;16.07;;;4.10;99.90;;;;;;5047887;28;20578;-72
2021/04/27 03:26:26;;;;;;;17.00;15.70;;;4.10;99.90;;;;;;5047813;28;20491;-72
2021/04/27 03:28:53;;;;;;;17.70;15.80;;;4.20;99.90;;;;;;5047633;28;20460;-72
2021/04/27 03:31:19;;;;;;;17.30;16.10;;;4.20;99.90;;;;;;5048338;28;20506;-72
2021/04/27 03:33:46;;;;;;;16.53;15.10;;;4.20;99.90;;;;;;5047353;28;20468;-72
2021/04/27 03:36:12;;;;;;;16.80;15.60;;;4.20;99.90;;;;;;5045697;28;20456;-70
2021/04/27 03:38:39;;;;;;;16.50;15.50;;;4.20;99.90;;;;;;5046959;28;20501;-70
2021/04/27 03:41:05;;;;;;;17.40;15.93;;;4.00;99.90;;;;;;5047597;28;20467;-70
2021/04/27 03:43:33;;;;;;;16.77;15.37;;;3.80;99.90;;;;;;5048058;28;20491;-70
2021/04/27 03:46:00;;;;;;;16.80;15.60;;;3.90;99.90;;;;;;5049178;28;20671;-70
2021/04/27 03:48:27;;;;;;;15.97;15.03;;;3.80;99.90;;;;;;5047827;28;20486;-70
2021/04/27 03:50:55;;;;;;;16.40;15.30;;;3.80;99.90;;;;;;5046817;28;20864;-70
2021/04/27 03:53:21;;;;;;;15.70;14.60;;;3.70;99.90;;;;;;5045545;28;20472;-70
2021/04/27 03:55:48;;;;;;;18.73;15.20;;;3.60;99.90;;;;;;5047368;28;20459;-70
2021/04/27 03:58:14;;;;;;;16.43;15.03;;;3.70;99.90;;;;;;5048356;28;20467;-70
2021/04/27 04:00:40;;;;;;;16.33;15.20;;;3.70;99.90;;;;;;5047811;28;20467;-70
2021/04/27 04:03:08;;;;;;;15.77;14.67;;;3.70;99.90;;;;;;5046269;28;20502;-70
2021/04/27 04:05:34;;;;;;;17.33;15.70;;;3.70;99.90;;;;;;5047132;28;20455;-70
2021/04/27 04:08:00;;;;;;;16.80;15.07;;;3.80;99.90;;;;;;5047020;28;20462;-70
2021/04/27 04:10:27;;;;;;;16.60;15.23;;;3.80;99.90;;;;;;5047187;28;20471;-70
2021/04/27 04:12:54;;;;;;;15.90;14.60;;;3.70;99.90;;;;;;5047113;28;21712;-70
2021/04/27 04:15:22;;;;;;;17.00;15.20;;;3.70;99.90;;;;;;5048385;28;20464;-70
2021/04/27 04:17:48;;;;;;;16.80;15.20;;;3.70;99.90;;;;;;5047277;28;20463;-70
2021/04/27 04:20:18;;;;;;;17.20;15.80;;;3.70;99.90;;;;;;5047244;28;20456;-70
2021/04/27 04:22:44;;;;;;;16.07;14.80;;;3.70;99.90;;;;;;5046758;28;20514;-70
2021/04/27 04:25:12;;;;;;;16.23;14.63;;;3.70;99.90;;;;;;5046702;28;20467;-70
2021/04/27 04:27:40;;;;;;;16.23;14.97;;;3.80;99.90;;;;;;5042722;28;20456;-70
2021/04/27 04:30:09;;;;;;;16.07;15.00;;;3.80;99.90;;;;;;5046835;28;20466;-70
2021/04/27 04:32:36;;;;;;;17.47;15.10;;;3.80;99.90;;;;;;5046866;28;20478;-70
2021/04/27 04:35:03;;;;;;;16.87;15.47;;;3.80;99.90;;;;;;5047119;28;20463;-70
2021/04/27 04:37:30;;;;;;;17.00;15.70;;;3.80;99.90;;;;;;5047719;28;20474;-70
2021/04/27 04:39:56;;;;;;;18.07;16.53;;;3.80;99.90;;;;;;5048276;28;20524;-70
2021/04/27 04:42:22;;;;;;;17.40;16.20;;;3.80;99.90;;;;;;5046082;28;20506;-70
2021/04/27 04:44:50;;;;;;;15.73;14.70;;;3.80;99.90;;;;;;5049529;28;20466;-70
2021/04/27 04:47:17;;;;;;;18.03;16.57;;;3.90;99.90;;;;;;5050692;28;20805;-70
2021/04/27 04:49:43;;;;;;;17.77;16.43;;;4.00;99.90;;;;;;5049258;28;20467;-70
2021/04/27 04:52:10;;;;;;;20.30;15.40;;;4.00;99.90;;;;;;5052524;28;20454;-70
2021/04/27 04:54:37;;;;;;;21.83;16.00;;;4.10;99.90;;;;;;5051023;28;20488;-70
2021/04/27 04:57:04;;;;;;;16.60;15.13;;;4.20;99.90;;;;;;5048968;28;20455;-70
2021/04/27 04:59:31;;;;;;;17.83;16.20;;;4.30;99.90;;;;;;5050735;28;20470;-70
2021/04/27 05:01:57;;;;;;;17.03;16.00;;;4.30;99.90;;;;;;5050928;28;20816;-70
2021/04/27 05:04:24;;;;;;;20.53;16.73;;;4.50;99.90;;;;;;5048751;28;20493;-70
2021/04/27 05:06:51;;;;;;;16.27;14.63;;;4.50;99.90;;;;;;5049200;28;20463;-70
2021/04/27 05:09:18;;;;;;;16.93;15.13;;;4.70;99.90;;;;;;5051933;28;20492;-70
2021/04/27 05:11:45;;;;;;;16.80;15.40;;;4.70;99.90;;;;;;5050328;28;20557;-70
2021/04/27 05:14:12;;;;;;;15.80;14.80;;;4.80;99.90;;;;;;5050580;28;20468;-70
2021/04/27 05:16:39;;;;;;;18.03;16.57;;;4.90;99.90;;;;;;5050514;28;20933;-70
2021/04/27 05:19:05;;;;;;;16.60;14.83;;;5.00;99.90;;;;;;5045426;28;20639;-70
2021/04/27 05:21:33;;;;;;;17.60;16.10;;;5.10;99.90;;;;;;5052253;28;20946;-70
2021/04/27 05:24:00;;;;;;;17.43;15.37;;;5.20;99.90;;;;;;5047671;28;20494;-70
2021/04/27 05:26:27;;;;;;;20.13;14.93;;;5.30;99.90;;;;;;5049820;28;20487;-70
2021/04/27 05:28:54;;;;;;;20.53;15.50;;;5.40;99.90;;;;;;5049643;28;20455;-70
2021/04/27 05:31:20;;;;;;;24.60;14.00;;;5.50;99.90;;;;;;5050246;28;20913;-70
2021/04/27 05:33:47;;;;;;;17.27;15.57;;;5.70;99.90;;;;;;5050449;28;20973;-70
2021/04/27 05:36:13;;;;;;;20.80;17.57;;;5.80;99.90;;;;;;5051787;28;20460;-70
2021/04/27 05:38:40;;;;;;;21.33;15.17;;;5.90;99.90;;;;;;5048494;28;20479;-70
2021/04/27 05:41:06;;;;;;;17.70;15.37;;;6.00;99.90;;;;;;5049977;28;20459;-70
2021/04/27 05:43:32;;;;;;;27.97;14.63;;;6.10;99.90;;;;;;5046867;28;20492;-70
2021/04/27 05:46:00;;;;;;;16.77;14.93;;;6.20;99.90;;;;;;5048869;28;20836;-70
2021/04/27 05:48:26;;;;;;;16.37;14.90;;;6.40;99.90;;;;;;5050957;28;20468;-70
2021/04/27 05:50:54;;;;;;;26.67;15.60;;;6.50;99.90;;;;;;5047776;28;20551;-70
2021/04/27 05:53:22;;;;;;;16.97;15.53;;;6.60;99.90;;;;;;5049067;28;20470;-70
2021/04/27 05:55:48;;;;;;;16.10;14.73;;;6.80;99.90;;;;;;5049338;28;20825;-70
2021/04/27 05:58:15;;;;;;;15.90;15.00;;;6.90;99.90;;;;;;5047944;28;20457;-70
2021/04/27 06:00:41;;;;;;;25.63;14.87;;;7.00;99.90;;;;;;5048473;28;20475;-70
2021/04/27 06:03:09;;;;;;;15.13;13.70;;;7.20;99.90;;;;;;5049780;28;20541;-70
2021/04/27 06:05:35;;;;;;;14.90;14.10;;;7.30;99.90;;;;;;5050281;28;20510;-71
2021/04/27 06:08:03;;;;;;;15.47;14.00;;;7.40;99.90;;;;;;5047589;28;20485;-70
2021/04/27 06:10:29;;;;;;;15.67;14.37;;;7.50;99.40;;;;;;5046080;28;20981;-70
2021/04/27 06:12:56;;;;;;;15.40;14.10;;;7.70;98.50;;;;;;5032018;28;21061;-71
2021/04/27 06:15:22;;;;;;;15.63;14.33;;;7.80;98.10;;;;;;5031377;28;20457;-70
2021/04/27 06:17:48;;;;;;;16.13;15.00;;;8.10;97.40;;;;;;5042033;28;20466;-71
2021/04/27 06:20:17;;;;;;;16.03;14.70;;;8.20;97.00;;;;;;5043507;28;20465;-71
2021/04/27 06:22:44;;;;;;;16.13;14.77;;;8.40;96.80;;;;;;5044702;28;20492;-71
2021/04/27 06:25:12;;;;;;;16.47;14.50;;;8.60;96.30;;;;;;5044953;28;20462;-71
2021/04/27 06:27:38;;;;;;;16.53;15.43;;;8.60;95.50;;;;;;5044312;28;21101;-70
2021/04/27 06:30:11;;;;;;;17.00;15.27;;;8.60;95.20;;;;;;5046098;28;20464;-71
2021/04/27 06:32:38;;;;;;;15.30;14.30;;;8.80;94.70;;;;;;5046066;28;20837;-71
2021/04/27 06:35:05;;;;;;;15.70;14.50;;;8.90;94.60;;;;;;5043921;28;20464;-70
2021/04/27 06:37:32;;;;;;;16.87;15.87;;;9.00;94.30;;;;;;5044251;28;20837;-71
2021/04/27 06:39:59;;;;;;;17.00;15.70;;;9.10;94.00;;;;;;5044221;28;20501;-71
2021/04/27 06:42:25;;;;;;;17.17;15.70;;;9.40;93.90;;;;;;5046553;28;20664;-70
2021/04/27 06:44:51;;;;;;;18.23;16.57;;;9.40;92.50;;;;;;5041107;28;20470;-70
2021/04/27 06:47:18;;;;;;;16.10;14.90;;;9.40;92.50;;;;;;5043684;28;20559;-71
2021/04/27 06:49:44;;;;;;;16.00;14.53;;;9.40;91.70;;;;;;5043858;28;20845;-73
2021/04/27 06:52:11;;;;;;;15.90;14.60;;;9.50;90.80;;;;;;5043907;28;20462;-71
2021/04/27 06:54:39;;;;;;;16.50;15.10;;;9.40;90.60;;;;;;5043128;28;20491;-70
2021/04/27 06:57:07;;;;;;;17.87;15.70;;;9.70;91.00;;;;;;5042747;28;20986;-73
2021/04/27 06:59:33;;;;;;;16.10;15.00;;;9.90;90.50;;;;;;5044379;28;20866;-71
2021/04/27 07:02:01;;;;;;;16.00;14.80;;;10.00;88.00;;;;;;5043422;28;20459;-71
2021/04/27 07:04:29;;;;;;;15.43;14.53;;;10.10;86.30;;;;;;5035826;28;20459;-71
2021/04/27 07:06:56;;;;;;;15.80;14.47;;;10.40;85.90;;;;;;5039920;28;20944;-72
2021/04/27 07:09:22;;;;;;;15.77;14.40;;;10.40;86.00;;;;;;5042807;28;20546;-71
2021/04/27 07:11:50;;;;;;;16.83;15.30;;;10.60;84.80;;;;;;5045003;28;20467;-71
2021/04/27 07:14:17;;;;;;;15.90;14.40;;;10.60;81.90;;;;;;5044778;28;20552;-70
2021/04/27 07:16:44;;;;;;;15.10;14.13;;;10.50;82.10;;;;;;5042319;28;20475;-71
2021/04/27 07:19:10;;;;;;;15.00;14.20;;;10.70;82.60;;;;;;5043380;28;20559;-71
2021/04/27 07:21:39;;;;;;;16.27;14.67;;;10.90;82.70;;;;;;5042883;28;20488;-72
2021/04/27 07:24:06;;;;;;;15.40;14.47;;;11.20;82.70;;;;;;5044284;28;20548;-70
2021/04/27 07:26:33;;;;;;;16.17;15.07;;;11.30;82.80;;;;;;5044452;28;20467;-72
2021/04/27 07:29:01;;;;;;;16.00;15.00;;;11.40;82.20;;;;;;5043622;28;20514;-71
2021/04/27 07:31:27;;;;;;;16.23;15.07;;;11.50;81.70;;;;;;5043294;28;20470;-71
2021/04/27 07:33:54;;;;;;;16.23;15.23;;;11.60;81.70;;;;;;5040916;28;20471;-70
2021/04/27 07:36:21;;;;;;;15.67;14.57;;;11.70;78.10;;;;;;5043514;28;20471;-72
2021/04/27 07:38:47;;;;;;;16.00;14.57;;;11.90;79.60;;;;;;5041846;28;20503;-72
2021/04/27 07:41:14;;;;;;;14.90;13.57;;;12.10;78.10;;;;;;5042697;28;20464;-71
2021/04/27 07:43:41;;;;;;;14.87;13.73;;;12.20;78.10;;;;;;5042510;28;20499;-72
2021/04/27 07:46:08;;;;;;;15.37;14.17;;;12.20;75.10;;;;;;5042821;28;20471;-71
2021/04/27 07:48:34;;;;;;;16.40;14.77;;;12.10;76.10;;;;;;5042344;28;20468;-72
2021/04/27 07:51:00;;;;;;;17.37;15.27;;;12.00;76.00;;;;;;5048891;28;20865;-70
2021/04/27 07:53:27;;;;;;;16.27;15.10;;;12.20;76.40;;;;;;5050147;28;20464;-70
2021/04/27 07:55:53;;;;;;;20.50;14.80;;;12.40;74.80;;;;;;5040233;28;20470;-70
2021/04/27 07:58:20;;;;;;;17.27;15.80;;;12.50;74.80;;;;;;5043220;28;20460;-70
2021/04/27 08:00:47;;;;;;;17.40;15.70;;;12.60;75.20;;;;;;5042731;28;20460;-71
2021/04/27 08:03:14;;;;;;;15.70;14.20;;;12.90;75.30;;;;;;5043038;28;20479;-70
2021/04/27 08:05:40;;;;;;;16.23;15.00;;;12.50;72.90;;;;;;5043561;28;20456;-70
2021/04/27 08:08:07;;;;;;;16.30;15.10;;;12.70;74.90;;;;;;5041444;28;20460;-70
2021/04/27 08:10:34;;;;;;;15.47;14.30;;;12.90;74.00;;;;;;5043381;28;20494;-71
2021/04/27 08:13:01;;;;;;;16.77;14.80;;;12.90;71.60;;;;;;5042737;28;20476;-71
2021/04/27 08:15:30;;;;;;;15.70;14.70;;;12.90;70.80;;;;;;5043098;28;20464;-71
2021/04/27 08:18:00;;;;;;;15.37;14.27;;;13.00;71.00;;;;;;5042255;28;20509;-71
2021/04/27 08:20:30;;;;;;;16.10;15.00;;;13.00;68.80;;;;;;5038038;28;20928;-70
2021/04/27 08:22:57;;;;;;;16.13;14.97;;;13.10;69.70;;;;;;5044164;28;20495;-71
2021/04/27 08:25:24;;;;;;;16.10;14.97;;;13.30;69.90;;;;;;5043497;28;20459;-71
2021/04/27 08:27:50;;;;;;;16.43;15.00;;;13.40;68.10;;;;;;5042468;28;21261;-71
2021/04/27 08:30:19;;;;;;;16.03;14.80;;;13.40;66.30;;;;;;5042573;28;20467;-71
2021/04/27 08:32:45;;;;;;;15.53;14.30;;;13.50;65.90;;;;;;5042298;28;20452;-71
2021/04/27 08:35:12;;;;;;;16.10;15.03;;;13.50;65.10;;;;;;5043445;28;20464;-71
2021/04/27 08:37:40;;;;;;;16.00;14.90;;;13.40;64.30;;;;;;5041424;28;20990;-71
2021/04/27 08:40:10;;;;;;;16.00;14.70;;;13.80;62.80;;;;;;5038404;28;20459;-71
2021/04/27 08:42:37;;;;;;;14.50;13.60;;;14.10;62.10;;;;;;5037230;28;20483;-70
2021/04/27 08:45:07;;;;;;;16.33;15.23;;;15.20;61.40;;;;;;5042695;28;20464;-71
2021/04/27 08:47:34;;;;;;;14.80;13.67;;;15.50;58.30;;;;;;5040610;28;20890;-71
2021/04/27 08:50:01;;;;;;;16.33;15.10;;;15.90;58.10;;;;;;5044576;28;20459;-71
2021/04/27 08:52:27;;;;;;;15.03;14.03;;;16.30;56.00;;;;;;5042673;28;20550;-71
2021/04/27 08:54:55;;;;;;;14.70;13.83;;;16.90;56.30;;;;;;5041521;28;20479;-71
2021/04/27 08:57:21;;;;;;;15.57;14.57;;;17.80;56.60;;;;;;5041368;28;20613;-71
2021/04/27 08:59:47;;;;;;;14.80;14.00;;;18.50;53.90;;;;;;5043409;28;20463;-72
2021/04/27 09:02:15;;;;;;;15.50;14.40;;;18.70;52.30;;;;;;5041800;28;20474;-72
2021/04/27 09:04:43;;;;;;;14.90;13.90;;;18.70;52.00;;;;;;5042242;28;20464;-71
2021/04/27 09:07:12;;;;;;;15.37;14.27;;;19.20;50.00;;;;;;5042121;28;20529;-71
2021/04/27 09:09:40;;;;;;;14.07;13.23;;;18.70;47.60;;;;;;5041224;28;20578;-71
2021/04/27 09:12:09;;;;;;;14.83;13.67;;;18.60;49.60;;;;;;5041003;28;21006;-71
2021/04/27 09:14:37;;;;;;;14.87;13.97;;;18.90;50.40;;;;;;5041791;28;20464;-71
2021/04/27 09:17:06;;;;;;;18.07;14.70;;;19.70;49.00;;;;;;5040661;28;20494;-71
2021/04/27 09:19:35;;;;;;;15.40;14.30;;;18.80;47.30;;;;;;5042185;28;20846;-71
2021/04/27 09:22:04;;;;;;;15.87;14.63;;;18.20;47.70;;;;;;5041752;28;20463;-71
2021/04/27 09:24:34;;;;;;;16.10;14.70;;;18.00;46.60;;;;;;5042800;28;20495;-71
2021/04/27 09:27:00;;;;;;;15.07;13.63;;;18.60;47.80;;;;;;5041889;28;20464;-71
2021/04/27 09:29:34;;;;;;;16.00;14.80;;;18.50;47.20;;;;;;5043486;28;20977;-71
2021/04/27 09:32:01;;;;;;;15.30;13.97;;;18.70;46.60;;;;;;5041763;28;20956;-71
2021/04/27 09:34:29;;;;;;;15.00;14.00;;;18.40;46.10;;;;;;5045979;28;20459;-71
2021/04/27 09:36:58;;;;;;;15.00;14.00;;;18.60;45.60;;;;;;5041350;28;20464;-71
2021/04/27 09:39:34;;;;;;;14.63;13.43;;;18.90;46.20;;;;;;5045668;28;20493;-71
2021/04/27 09:42:10;;;;;;;13.77;12.77;;;18.40;46.60;;;;;;5044998;28;20462;-71
2021/04/27 09:44:45;;;;;;;14.00;12.87;;;18.20;46.60;;;;;;5045388;28;20498;-71
2021/04/27 09:47:18;;;;;;;14.57;13.77;;;19.20;46.50;;;;;;5045183;28;20996;-72
2021/04/27 09:49:57;;;;;;;15.57;14.37;;;19.60;45.10;;;;;;5038752;28;20492;-71
2021/04/27 09:52:24;;;;;;;15.47;14.30;;;19.70;44.30;;;;;;5039861;28;20459;-71
2021/04/27 09:54:59;;;;;;;14.17;13.27;;;20.00;45.20;;;;;;5044308;28;20483;-71
2021/04/27 09:57:26;;;;;;;14.10;13.30;;;19.20;43.00;;;;;;5043639;28;20878;-71
2021/04/27 09:59:54;;;;;;;14.60;13.40;;;19.50;44.20;;;;;;5046115;28;20467;-71
2021/04/27 10:02:21;;;;;;;14.97;13.90;;;20.20;42.20;;;;;;5039580;28;20459;-71
2021/04/27 10:04:49;;;;;;;14.73;13.63;;;19.00;42.40;;;;;;5043970;28;20943;-72
2021/04/27 10:07:16;;;;;;;14.37;13.57;;;18.20;42.70;;;;;;5042277;28;20509;-71
2021/04/27 10:09:46;;;;;;;15.33;14.33;;;18.00;43.50;;;;;;5046742;28;20491;-71
2021/04/27 10:12:14;;;;;;;13.83;12.93;;;18.60;42.00;;;;;;5042300;28;20812;-71
2021/04/27 10:14:41;;;;;;;14.30;13.07;;;18.80;41.80;;;;;;5044301;28;20521;-71
2021/04/27 10:17:16;;;;;;;15.33;14.10;;;18.40;43.80;;;;;;5042210;28;20844;-71
2021/04/27 10:19:42;;;;;;;15.57;14.57;;;18.80;42.00;;;;;;5039994;28;20508;-71
2021/04/27 10:22:12;;;;;;;14.37;13.37;;;19.20;41.50;;;;;;5041614;28;20464;-71
2021/04/27 10:24:39;;;;;;;12.80;12.20;;;19.90;43.30;;;;;;5042256;28;20503;-71
2021/04/27 10:27:07;;;;;;;14.40;13.40;;;19.40;40.70;;;;;;5043529;28;20546;-71
2021/04/27 10:29:34;;;;;;;14.07;13.27;;;19.70;40.50;;;;;;5044295;28;20833;-71
2021/04/27 10:32:20;;;;;;;13.47;12.67;;;19.10;39.30;;;;;;5041368;28;21018;-71
2021/04/27 10:35:06;;;;;;;13.60;12.70;;;20.10;40.60;;;;;;5037406;28;20513;-71
2021/04/27 10:37:59;;;;;;;13.57;12.60;;;20.80;39.90;;;;;;5041623;28;20470;-72
2021/04/27 10:40:47;;;;;;;14.00;13.20;;;21.80;39.10;;;;;;5042798;28;21018;-71
2021/04/27 10:43:34;;;;;;;14.00;13.03;;;22.10;38.70;;;;;;5040418;28;20491;-71
2021/04/27 10:46:02;;;;;;;14.70;13.33;;;21.30;38.00;;;;;;5040271;28;20463;-71
2021/04/27 10:48:31;;;;;;;14.50;13.20;;;21.00;38.10;;;;;;5043117;28;20460;-71
2021/04/27 10:51:00;;;;;;;14.27;13.00;;;21.00;36.90;;;;;;5044401;28;20470;-71
2021/04/27 10:53:30;;;;;;;13.80;12.90;;;21.70;37.00;;;;;;5042232;28;20547;-71
2021/04/27 10:55:57;;;;;;;14.10;13.20;;;21.70;37.40;;;;;;5043793;28;20472;-71
2021/04/27 10:58:44;;;;;;;13.07;12.30;;;22.10;35.20;;;;;;5044225;28;20533;-71
2021/04/27 11:01:21;;;;;;;15.00;13.63;;;21.30;35.40;;;;;;5040888;28;20507;-71
2021/04/27 11:03:52;;;;;;;14.70;13.80;;;21.50;37.20;;;;;;5044849;28;20852;-71
2021/04/27 11:06:19;;;;;;;14.30;13.00;;;22.30;36.70;;;;;;5041509;28;20468;-71
2021/04/27 11:08:48;;;;;;;14.63;13.63;;;22.50;33.80;;;;;;5044527;28;20480;-71
2021/04/27 11:11:24;;;;;;;14.00;13.20;;;22.70;34.20;;;;;;5043274;28;20464;-71
2021/04/27 11:13:53;;;;;;;14.63;13.83;;;23.40;33.70;;;;;;5043283;28;20470;-71
2021/04/27 11:16:28;;;;;;;13.90;13.13;;;24.30;32.70;;;;;;5043890;28;20529;-71
2021/04/27 11:19:34;;;;;;;13.10;12.47;;;24.00;34.40;;;;;;5042702;28;20463;-71
2021/04/27 11:22:21;;;;;;;14.57;13.57;;;23.30;32.10;;;;;;5041960;28;20463;-71
2021/04/27 11:24:48;;;;;;;14.57;13.40;;;23.70;31.20;;;;;;5043452;28;20504;-71
2021/04/27 11:27:29;;;;;;;13.80;12.47;;;24.30;32.50;;;;;;5043315;28;20833;-71
2021/04/27 11:30:01;;;;;;;13.53;12.63;;;24.60;32.30;;;;;;5043412;28;20544;-71
2021/04/27 11:32:30;;;;;;;13.97;13.03;;;24.20;31.30;;;;;;5039684;28;20959;-71
2021/04/27 11:35:14;;;;;;;13.27;12.57;;;24.20;30.80;;;;;;5041329;28;20467;-72
2021/04/27 11:37:46;;;;;;;14.90;14.10;;;23.20;31.60;;;;;;5035229;28;20559;-71
2021/04/27 11:40:19;;;;;;;15.17;14.17;;;24.10;31.90;;;;;;5041242;28;21040;-71
2021/04/27 11:42:50;;;;;;;14.07;13.13;;;24.20;30.00;;;;;;5041765;28;20471;-71
2021/04/27 11:45:20;;;;;;;15.43;14.37;;;23.40;30.80;;;;;;5038405;28;20670;-71
2021/04/27 11:47:47;;;;;;;15.17;14.00;;;24.10;31.10;;;;;;5038750;28;20460;-71
2021/04/27 11:50:16;;;;;;;14.73;13.63;;;24.20;30.90;;;;;;5041064;28;20497;-71
2021/04/27 11:53:05;;;;;;;15.20;13.80;;;22.80;30.30;;;;;;5040588;28;20463;-71
2021/04/27 11:55:36;;;;;;;14.87;13.97;;;23.20;30.90;;;;;;5037487;28;20549;-71
2021/04/27 11:58:05;;;;;;;15.67;14.10;;;23.50;32.10;;;;;;5042652;28;20468;-71
2021/04/27 12:00:45;;;;;;;14.93;14.03;;;24.40;32.10;;;;;;5039759;28;20460;-71
2021/04/27 12:03:26;;;;;;;14.70;13.90;;;24.80;30.60;;;;;;5042814;28;20637;-71
2021/04/27 12:05:55;;;;;;;14.47;13.37;;;24.50;29.80;;;;;;5044549;28;20460;-71
2021/04/27 12:08:25;;;;;;;13.97;13.07;;;24.00;29.80;;;;;;5043423;28;20491;-71
2021/04/27 12:11:08;;;;;;;13.60;12.70;;;24.10;29.60;;;;;;5041219;28;20464;-71
2021/04/27 12:13:36;;;;;;;14.47;13.37;;;24.30;31.10;;;;;;5042541;28;20551;-71
2021/04/27 12:16:12;;;;;;;14.80;14.00;;;25.70;29.00;;;;;;5042620;28;20464;-71
2021/04/27 12:19:00;;;;;;;14.10;13.30;;;25.30;28.60;;;;;;5040876;28;21142;-71
2021/04/27 12:21:33;;;;;;;14.90;13.80;;;23.90;29.20;;;;;;5042002;28;20460;-71
2021/04/27 12:24:12;;;;;;;14.50;13.50;;;24.50;29.70;;;;;;5039912;28;20499;-71
2021/04/27 12:26:41;;;;;;;14.23;13.50;;;24.30;28.50;;;;;;5041698;28;20467;-71
2021/04/27 12:29:09;;;;;;;15.00;13.97;;;24.40;28.50;;;;;;5044346;28;20861;-71
2021/04/27 12:31:36;;;;;;;15.33;14.43;;;25.10;29.00;;;;;;5042568;28;20466;-71
2021/04/27 12:34:05;;;;;;;14.60;13.70;;;26.00;27.70;;;;;;5042514;28;20459;-71
2021/04/27 12:36:37;;;;;;;14.60;13.77;;;25.20;27.30;;;;;;5042282;28;20459;-71
2021/04/27 12:39:09;;;;;;;14.37;13.50;;;25.50;28.70;;;;;;5042384;28;20492;-71
2021/04/27 12:41:40;;;;;;;13.43;12.60;;;26.40;28.40;;;;;;5043492;28;20950;-71